createdAt,value
2023-02-11T00:01:35.258Z,42.80
2023-02-11T00:04:03.822Z,42.72
2023-02-11T00:06:33.464Z,40.35
2023-02-11T00:09:01.293Z,43.25
2023-02-11T00:11:30.811Z,40.05
2023-02-11T00:14:04.287Z,40.08
2023-02-11T00:16:33.189Z,38.95
2023-02-11T00:19:01.827Z,38.92
2023-02-11T00:21:29.877Z,37.58
2023-02-11T00:23:59.997Z,39.80
2023-02-11T00:26:32.634Z,37.55
2023-02-11T00:29:01.076Z,42.17
2023-02-11T00:31:28.856Z,38.20
2023-02-11T00:33:57.459Z,40.72
2023-02-11T00:36:26.887Z,38.15
2023-02-11T00:38:56.584Z,39.95
2023-02-11T00:41:24.595Z,35.42
2023-02-11T00:43:53.222Z,35.92
2023-02-11T00:46:22.652Z,42.35
2023-02-11T00:48:52.057Z,42.63
2023-02-11T00:51:19.493Z,45.20
2023-02-11T00:53:47.700Z,48.75
2023-02-11T00:56:17.397Z,48.67
2023-02-11T00:58:44.857Z,56.17
2023-02-11T01:01:14.528Z,50.17
2023-02-11T01:03:42.656Z,49.58
2023-02-11T01:06:11.042Z,49.95
2023-02-11T01:08:39.505Z,48.22
2023-02-11T01:11:12.365Z,47.30
2023-02-11T01:13:39.899Z,47.17
2023-02-11T01:16:09.603Z,43.67
2023-02-11T01:18:37.947Z,47.80
2023-02-11T01:21:07.977Z,46.60
2023-02-11T01:23:36.168Z,50.15
2023-02-11T01:26:05.997Z,49.20
2023-02-11T01:28:34.208Z,48.47
2023-02-11T01:31:03.079Z,48.95
2023-02-11T01:33:30.940Z,50.20
2023-02-11T01:36:04.528Z,48.88
2023-02-11T01:38:33.273Z,45.60
2023-02-11T01:41:07.548Z,45.92
2023-02-11T01:43:38.563Z,49.05
2023-02-11T01:46:06.730Z,46.22
2023-02-11T01:48:39.145Z,45.92
2023-02-11T01:51:22.487Z,47.20
2023-02-11T01:54:08.909Z,46.22
2023-02-11T01:57:01.111Z,44.45
2023-02-11T01:59:33.602Z,46.95
2023-02-11T02:02:06.590Z,43.33
2023-02-11T02:04:39.310Z,41.53
2023-02-11T02:07:12.441Z,47.72
2023-02-11T02:09:44.741Z,48.15
2023-02-11T02:12:12.203Z,40.72
2023-02-11T02:14:40.995Z,46.03
2023-02-11T02:17:18.041Z,42.85
2023-02-11T02:20:11.475Z,48.95
2023-02-11T02:22:48.012Z,45.00
2023-02-11T02:25:42.810Z,47.00
2023-02-11T02:28:33.038Z,41.35
2023-02-11T02:31:22.014Z,44.22
2023-02-11T02:34:07.024Z,43.47
2023-02-11T02:36:48.764Z,42.35
2023-02-11T02:39:23.115Z,40.85
2023-02-11T02:41:53.176Z,39.50
2023-02-11T02:44:23.046Z,41.17
2023-02-11T02:46:50.487Z,39.35
2023-02-11T02:49:23.642Z,39.72
2023-02-11T02:52:12.067Z,45.42
2023-02-11T02:55:00.566Z,42.30
2023-02-11T02:57:46.728Z,39.63
2023-02-11T03:00:33.224Z,38.88
2023-02-11T03:03:33.079Z,40.67
2023-02-11T03:06:13.453Z,41.78
2023-02-11T03:08:55.369Z,44.70
2023-02-11T03:11:24.703Z,44.50
2023-02-11T03:13:54.980Z,41.67
2023-02-11T03:16:28.614Z,44.38
2023-02-11T03:19:11.910Z,42.90
2023-02-11T03:21:42.446Z,43.58
2023-02-11T03:24:19.072Z,45.58
2023-02-11T03:26:57.258Z,45.60
2023-02-11T03:29:37.051Z,46.20
2023-02-11T03:32:41.678Z,45.63
2023-02-11T03:35:48.096Z,42.15
2023-02-11T03:38:23.945Z,50.58
2023-02-11T03:40:56.118Z,48.13
2023-02-11T03:43:31.231Z,47.55
2023-02-11T03:46:00.473Z,44.63
2023-02-11T03:48:52.082Z,47.85
2023-02-11T03:51:24.217Z,47.85
2023-02-11T03:53:55.652Z,44.53
2023-02-11T03:56:29.336Z,45.53
2023-02-11T03:58:56.497Z,46.95
2023-02-11T04:01:24.039Z,45.65
2023-02-11T04:03:51.323Z,42.38
2023-02-11T04:06:18.902Z,45.42
2023-02-11T04:08:46.269Z,52.92
2023-02-11T04:11:13.906Z,45.80
2023-02-11T04:13:41.211Z,50.10
2023-02-11T04:16:08.780Z,54.47
2023-02-11T04:18:36.141Z,60.63
2023-02-11T04:21:04.618Z,57.10
2023-02-11T04:23:32.138Z,50.67
2023-02-11T04:25:59.668Z,49.97
2023-02-11T04:28:29.652Z,44.22
2023-02-11T04:30:57.045Z,48.22
2023-02-11T04:33:24.702Z,43.22
2023-02-11T04:35:52.319Z,44.13
2023-02-11T04:38:20.927Z,46.95
2023-02-11T04:40:48.286Z,48.17
2023-02-11T04:43:15.755Z,48.63
2023-02-11T04:45:43.340Z,45.00
2023-02-11T04:48:11.725Z,48.00
2023-02-11T04:50:40.297Z,47.47
2023-02-11T04:53:07.721Z,44.38
2023-02-11T04:55:35.181Z,45.72
2023-02-11T04:58:03.527Z,45.80
2023-02-11T05:00:31.104Z,47.58
2023-02-11T05:02:58.570Z,47.92
2023-02-11T05:05:27.002Z,43.20
2023-02-11T05:07:56.432Z,50.28
2023-02-11T05:10:23.912Z,46.40
2023-02-11T05:12:52.593Z,50.40
2023-02-11T05:15:21.409Z,47.35
2023-02-11T05:17:49.906Z,45.78
2023-02-11T05:20:17.022Z,45.40
2023-02-11T05:22:45.388Z,45.78
2023-02-11T05:25:13.133Z,57.75
2023-02-11T05:27:40.183Z,54.53
2023-02-11T05:30:08.213Z,55.63
2023-02-11T05:32:35.820Z,47.22
2023-02-11T05:35:03.141Z,45.13
2023-02-11T05:37:30.604Z,47.42
2023-02-11T05:39:58.036Z,47.92
2023-02-11T05:42:26.526Z,45.03
2023-02-11T05:44:54.014Z,40.55
2023-02-11T05:47:22.514Z,42.17
2023-02-11T05:49:50.108Z,40.05
2023-02-11T05:52:20.072Z,43.70
2023-02-11T05:54:47.469Z,35.65
2023-02-11T05:57:16.486Z,39.80
2023-02-11T05:59:45.810Z,43.33
2023-02-11T06:02:13.617Z,45.65
2023-02-11T06:04:42.920Z,43.20
2023-02-11T06:07:11.552Z,40.92
2023-02-11T06:09:44.883Z,41.75
2023-02-11T06:14:45.110Z,41.72
2023-02-11T06:17:13.992Z,45.55
2023-02-11T06:19:42.554Z,39.47
2023-02-11T06:22:09.957Z,43.72
2023-02-11T06:24:58.952Z,40.35
2023-02-11T06:27:26.513Z,42.53
2023-02-11T06:29:53.864Z,42.45
2023-02-11T06:32:42.231Z,43.42
2023-02-11T06:35:11.891Z,50.70
2023-02-11T06:37:41.522Z,42.47
2023-02-11T06:40:09.169Z,44.67
2023-02-11T06:42:39.322Z,44.65
2023-02-11T06:45:13.569Z,43.03
2023-02-11T06:47:42.936Z,42.35
2023-02-11T06:50:13.650Z,41.63
2023-02-11T06:52:41.560Z,42.47
2023-02-11T06:55:15.275Z,45.10
2023-02-11T06:57:42.408Z,38.30
2023-02-11T07:00:11.426Z,39.28
2023-02-11T07:02:38.947Z,43.35
2023-02-11T07:05:08.054Z,40.58
2023-02-11T07:07:35.573Z,38.53
2023-02-11T07:10:04.455Z,38.08
2023-02-11T07:12:32.299Z,41.75
2023-02-11T07:14:59.361Z,43.75
2023-02-11T07:17:27.698Z,41.83
2023-02-11T07:19:54.720Z,40.58
2023-02-11T07:22:23.150Z,44.00
2023-02-11T07:24:50.944Z,38.55
2023-02-11T07:27:19.200Z,42.50
2023-02-11T07:29:48.952Z,39.60
2023-02-11T07:32:16.609Z,39.70
2023-02-11T07:34:43.956Z,36.83
2023-02-11T07:37:11.377Z,39.38
2023-02-11T07:39:39.113Z,38.75
2023-02-11T07:42:06.853Z,41.25
2023-02-11T07:44:34.852Z,39.47
2023-02-11T07:47:08.071Z,42.00
2023-02-11T07:49:39.404Z,40.63
2023-02-11T07:52:06.847Z,37.55
2023-02-11T07:54:34.352Z,43.67
2023-02-11T07:57:02.849Z,47.78
2023-02-11T07:59:30.369Z,45.03
2023-02-11T08:01:57.894Z,45.90
2023-02-11T08:04:25.213Z,41.28
2023-02-11T08:06:56.555Z,42.75
2023-02-11T08:09:26.295Z,44.03
2023-02-11T08:11:53.652Z,39.92
2023-02-11T08:14:21.354Z,41.17
2023-02-11T08:16:48.842Z,42.88
2023-02-11T08:19:17.540Z,36.72
2023-02-11T08:21:45.446Z,37.75
2023-02-11T08:24:13.618Z,42.22
2023-02-11T08:26:41.328Z,39.08
2023-02-11T08:29:13.897Z,39.67
2023-02-11T08:31:45.640Z,37.20
2023-02-11T08:34:14.720Z,37.33
2023-02-11T08:36:42.845Z,38.67
2023-02-11T08:39:19.605Z,39.13
2023-02-11T08:41:51.111Z,40.05
2023-02-11T08:44:20.065Z,43.15
2023-02-11T08:46:48.129Z,34.88
2023-02-11T08:49:15.912Z,38.05
2023-02-11T08:51:43.792Z,37.53
2023-02-11T08:54:11.395Z,37.38
2023-02-11T08:56:39.291Z,35.47
2023-02-11T08:59:07.889Z,35.50
2023-02-11T09:01:38.374Z,41.47
2023-02-11T09:04:05.808Z,35.53
2023-02-11T09:06:33.212Z,38.63
2023-02-11T09:09:00.970Z,98.00
2023-02-11T09:11:34.722Z,137.30
2023-02-11T09:14:04.460Z,44.65
2023-02-11T09:16:35.536Z,38.45
2023-02-11T09:19:06.009Z,41.45
2023-02-11T09:21:33.478Z,38.65
2023-02-11T09:24:01.099Z,39.30
2023-02-11T09:26:34.321Z,38.50
2023-02-11T09:29:03.649Z,38.80
2023-02-11T09:31:33.601Z,42.88
2023-02-11T09:34:04.810Z,88.57
2023-02-11T09:36:37.733Z,51.85
2023-02-11T09:39:09.651Z,41.50
2023-02-11T09:42:19.106Z,38.25
2023-02-11T09:44:48.047Z,45.80
2023-02-11T09:47:35.794Z,39.72
2023-02-11T09:50:39.007Z,39.55
2023-02-11T09:53:11.111Z,39.17
2023-02-11T09:55:47.078Z,44.00
2023-02-11T09:58:25.427Z,36.90
2023-02-11T10:01:14.394Z,39.95
2023-02-11T10:04:01.892Z,40.28
2023-02-11T10:06:50.996Z,40.03
2023-02-11T10:09:45.938Z,37.72
2023-02-11T10:12:43.961Z,38.40
2023-02-11T10:15:21.312Z,34.65
2023-02-11T10:18:19.170Z,36.15
2023-02-11T10:21:18.203Z,37.17
2023-02-11T10:23:56.340Z,38.05
2023-02-11T10:26:27.869Z,38.42
2023-02-11T10:29:01.633Z,43.55
2023-02-11T10:31:42.929Z,44.38
2023-02-11T10:34:16.251Z,43.03
2023-02-11T10:36:45.397Z,37.10
2023-02-11T10:39:24.527Z,37.00
2023-02-11T10:41:57.092Z,35.10
2023-02-11T10:44:50.020Z,35.13
2023-02-11T10:47:24.373Z,35.03
2023-02-11T10:49:53.832Z,32.67
2023-02-11T10:52:30.867Z,35.72
2023-02-11T10:55:05.268Z,33.88
2023-02-11T10:57:40.916Z,35.22
2023-02-11T11:00:31.139Z,31.98
2023-02-11T11:03:02.389Z,36.92
2023-02-11T11:05:33.622Z,35.45
2023-02-11T11:08:09.307Z,33.50
2023-02-11T11:10:45.335Z,36.42
2023-02-11T11:13:35.521Z,39.20
2023-02-11T11:16:14.834Z,40.38
2023-02-11T11:18:45.377Z,35.35
2023-02-11T11:21:43.468Z,37.38
2023-02-11T11:24:19.183Z,34.92
2023-02-11T11:26:52.946Z,37.17
2023-02-11T11:29:45.464Z,36.03
2023-02-11T11:32:28.100Z,39.50
2023-02-11T11:34:59.866Z,36.83
2023-02-11T11:37:42.170Z,33.83
2023-02-11T11:40:31.941Z,37.72
2023-02-11T11:43:15.428Z,33.70
2023-02-11T11:45:58.240Z,32.47
2023-02-11T11:48:38.716Z,32.90
2023-02-11T11:51:10.579Z,33.25
2023-02-11T11:54:12.624Z,49.53
2023-02-11T11:57:00.107Z,36.53
2023-02-11T11:59:30.894Z,41.55
2023-02-11T12:02:08.677Z,35.42
2023-02-11T12:04:55.661Z,30.77
2023-02-11T12:07:50.702Z,37.33
2023-02-11T12:10:21.667Z,31.30
2023-02-11T12:13:08.067Z,29.70
2023-02-11T12:16:10.428Z,32.75
2023-02-11T12:19:05.705Z,28.67
2023-02-11T12:21:54.458Z,30.52
2023-02-11T12:24:44.754Z,33.03
2023-02-11T12:27:24.445Z,39.83
2023-02-11T12:30:17.930Z,34.47
2023-02-11T12:32:53.705Z,32.17
2023-02-11T12:35:30.422Z,31.67
2023-02-11T12:38:16.750Z,38.80
2023-02-11T12:41:11.031Z,37.00
2023-02-11T12:43:44.145Z,37.55
2023-02-11T12:46:35.222Z,35.65
2023-02-11T12:49:26.261Z,40.50
2023-02-11T12:52:29.501Z,39.33
2023-02-11T12:55:04.704Z,34.33
2023-02-11T12:57:36.114Z,37.25
2023-02-11T13:00:13.437Z,37.78
2023-02-11T13:02:59.677Z,36.40
2023-02-11T13:05:34.348Z,40.22
2023-02-11T13:08:26.128Z,35.90
2023-02-11T13:11:00.885Z,33.78
2023-02-11T13:13:35.033Z,39.15
2023-02-11T13:16:36.961Z,38.65
2023-02-11T13:19:13.898Z,46.80
2023-02-11T13:22:06.279Z,82.35
2023-02-11T13:25:04.343Z,49.72
2023-02-11T13:27:37.974Z,32.65
2023-02-11T13:32:58.467Z,35.40
2023-02-11T13:35:35.067Z,37.47
2023-02-11T13:38:19.354Z,32.35
2023-02-11T13:41:02.828Z,37.63
2023-02-11T13:43:34.894Z,37.00
2023-02-11T13:46:07.611Z,38.63
2023-02-11T13:48:46.590Z,40.40
2023-02-11T13:51:18.183Z,35.35
2023-02-11T13:53:54.553Z,34.00
2023-02-11T13:56:38.574Z,34.78
2023-02-11T13:59:27.397Z,35.63
2023-02-11T14:02:19.559Z,40.88
2023-02-11T14:05:24.065Z,38.13
2023-02-11T14:08:29.049Z,30.83
2023-02-11T14:11:11.361Z,30.20
2023-02-11T14:13:49.030Z,31.50
2023-02-11T14:16:36.449Z,37.00
2023-02-11T14:19:06.669Z,32.83
2023-02-11T14:21:38.836Z,34.42
2023-02-11T14:24:07.308Z,36.40
2023-02-11T14:26:55.712Z,34.88
2023-02-11T14:29:53.010Z,33.17
2023-02-11T14:32:39.859Z,32.75
2023-02-11T14:35:31.867Z,37.00
2023-02-11T14:38:29.070Z,37.03
2023-02-11T14:41:06.638Z,38.15
2023-02-11T14:43:49.478Z,33.10
2023-02-11T14:46:21.427Z,32.83
2023-02-11T14:48:53.358Z,39.78
2023-02-11T14:51:28.972Z,38.70
2023-02-11T14:54:20.355Z,40.38
2023-02-11T14:57:26.260Z,40.97
2023-02-11T14:59:59.663Z,40.03
2023-02-11T15:07:52.420Z,39.85
2023-02-11T15:10:35.548Z,39.83
2023-02-11T15:13:05.735Z,41.85
2023-02-11T15:15:37.849Z,43.45
2023-02-11T15:18:06.463Z,43.08
2023-02-11T15:20:35.181Z,45.88
2023-02-11T15:23:08.407Z,49.63
2023-02-11T15:25:44.787Z,50.55
2023-02-11T15:28:26.250Z,52.95
2023-02-11T15:31:03.865Z,54.45
2023-02-11T15:33:33.589Z,56.63
2023-02-11T15:36:03.250Z,51.60
2023-02-11T15:38:37.329Z,59.78
2023-02-11T15:41:08.387Z,62.47
2023-02-11T15:43:51.517Z,60.47
2023-02-11T15:46:36.096Z,70.80
2023-02-11T15:49:06.550Z,76.05
2023-02-11T15:51:37.247Z,72.53
2023-02-11T15:54:17.493Z,75.75
2023-02-11T15:56:49.469Z,74.80
2023-02-11T15:59:38.490Z,80.50
2023-02-11T16:02:19.865Z,81.72
2023-02-11T16:05:03.316Z,77.63
2023-02-11T16:07:46.817Z,90.25
2023-02-11T16:10:31.714Z,78.18
2023-02-11T16:13:09.621Z,91.28
2023-02-11T16:15:59.285Z,76.43
2023-02-11T16:18:42.423Z,79.85
2023-02-11T16:21:19.117Z,79.90
2023-02-11T16:23:55.842Z,73.20
2023-02-11T16:26:34.008Z,78.28
2023-02-11T16:29:16.306Z,85.68
2023-02-11T16:31:50.471Z,79.47
2023-02-11T16:34:23.206Z,86.78
2023-02-11T16:36:53.947Z,88.90
2023-02-11T16:39:23.687Z,87.93
2023-02-11T16:41:53.084Z,83.40
2023-02-11T16:44:21.119Z,87.57
2023-02-11T16:46:49.667Z,86.97
2023-02-11T16:49:27.300Z,88.53
2023-02-11T16:52:03.275Z,86.43
2023-02-11T16:54:31.916Z,82.93
2023-02-11T16:57:00.358Z,92.15
2023-02-11T16:59:28.727Z,85.72
2023-02-11T17:01:59.763Z,94.43
2023-02-11T17:04:31.348Z,91.30
2023-02-11T17:06:59.928Z,93.25
2023-02-11T17:09:30.787Z,94.75
2023-02-11T17:12:00.859Z,90.25
2023-02-11T17:14:29.975Z,90.32
2023-02-11T17:16:58.679Z,89.60
2023-02-11T17:19:26.744Z,100.13
2023-02-11T17:21:55.032Z,90.90
2023-02-11T17:24:23.711Z,84.60
2023-02-11T17:26:52.232Z,90.35
2023-02-11T17:29:25.228Z,89.47
2023-02-11T17:31:54.397Z,87.18
2023-02-11T17:34:23.729Z,89.93
2023-02-11T17:36:52.689Z,85.95
2023-02-11T17:39:28.301Z,81.78
2023-02-11T17:41:57.481Z,82.88
2023-02-11T17:44:26.984Z,86.45
2023-02-11T17:46:55.396Z,84.10
2023-02-11T17:49:23.793Z,83.90
2023-02-11T17:51:52.073Z,90.15
2023-02-11T17:54:21.810Z,88.22
2023-02-11T17:56:51.471Z,83.20
2023-02-11T17:59:19.753Z,86.68
2023-02-11T18:01:48.369Z,89.55
2023-02-11T18:04:20.185Z,92.88
2023-02-11T18:06:56.264Z,90.95
2023-02-11T18:09:25.962Z,90.82
2023-02-11T18:11:55.753Z,91.43
2023-02-11T18:14:33.995Z,88.60
2023-02-11T18:17:02.590Z,92.38
2023-02-11T18:19:33.719Z,86.40
2023-02-11T18:22:05.000Z,87.43
2023-02-11T18:24:33.712Z,92.88
2023-02-11T18:27:02.399Z,87.43
2023-02-11T18:29:30.497Z,90.80
2023-02-11T18:31:59.128Z,91.10
2023-02-11T18:34:30.821Z,84.68
2023-02-11T18:36:59.660Z,93.50
2023-02-11T18:39:31.035Z,84.82
2023-02-11T18:42:00.440Z,87.35
2023-02-11T18:44:29.091Z,86.03
2023-02-11T18:47:05.138Z,85.18
2023-02-11T18:49:34.109Z,79.85
2023-02-11T18:52:04.804Z,89.18
2023-02-11T18:54:35.287Z,86.30
2023-02-11T18:57:06.638Z,87.75
2023-02-11T18:59:35.162Z,83.95
2023-02-11T19:02:03.311Z,85.15
2023-02-11T19:04:32.585Z,85.88
2023-02-11T19:07:04.001Z,87.65
2023-02-11T19:09:32.206Z,83.80
2023-02-11T19:12:04.355Z,85.30
2023-02-11T19:14:35.097Z,83.43
2023-02-11T19:17:10.282Z,81.70
2023-02-11T19:19:39.123Z,85.43
2023-02-11T19:22:10.592Z,86.50
2023-02-11T19:24:40.259Z,92.35
2023-02-11T19:27:08.513Z,93.40
2023-02-11T19:29:38.374Z,83.28
2023-02-11T19:32:08.687Z,76.35
2023-02-11T19:34:41.779Z,74.20
2023-02-11T19:37:13.998Z,65.20
2023-02-11T19:39:43.443Z,63.10
2023-02-11T19:42:12.532Z,68.35
2023-02-11T19:44:41.755Z,67.22
2023-02-11T19:47:11.338Z,66.13
2023-02-11T19:49:39.223Z,65.25
2023-02-11T19:52:08.782Z,62.28
2023-02-11T19:54:41.393Z,61.67
2023-02-11T19:57:12.992Z,66.10
2023-02-11T19:59:41.918Z,67.40
2023-02-11T20:02:15.052Z,63.72
2023-02-11T20:04:46.853Z,61.97
2023-02-11T20:07:16.352Z,58.75
2023-02-11T20:09:45.059Z,56.60
2023-02-11T20:12:16.205Z,57.13
2023-02-11T20:14:44.348Z,53.88
2023-02-11T20:17:13.775Z,52.15
2023-02-11T20:19:42.616Z,50.97
2023-02-11T20:22:11.204Z,47.20
2023-02-11T20:24:42.111Z,48.60
2023-02-11T20:27:11.835Z,44.25
2023-02-11T20:29:48.910Z,44.22
2023-02-11T20:32:17.699Z,40.00
2023-02-11T20:34:47.122Z,39.40
2023-02-11T20:37:20.466Z,38.65
2023-02-11T20:39:49.055Z,37.58
2023-02-11T20:42:16.979Z,35.95
2023-02-11T20:44:47.941Z,46.40
2023-02-11T20:47:17.780Z,39.40
2023-02-11T20:49:47.879Z,33.28
2023-02-11T20:52:16.799Z,32.13
2023-02-11T20:54:48.251Z,32.58
2023-02-11T20:57:16.868Z,32.13
2023-02-11T20:59:52.024Z,32.10
2023-02-11T21:02:23.587Z,30.40
2023-02-11T21:04:54.978Z,31.58
2023-02-11T21:07:23.294Z,32.38
2023-02-11T21:09:52.726Z,31.13
2023-02-11T21:12:21.101Z,31.20
2023-02-11T21:14:49.479Z,28.73
2023-02-11T21:17:17.948Z,25.15
2023-02-11T21:19:45.761Z,28.65
2023-02-11T21:22:14.530Z,28.83
2023-02-11T21:24:42.859Z,27.65
2023-02-11T21:27:13.166Z,26.60
2023-02-11T21:29:53.543Z,29.60
2023-02-11T21:32:22.581Z,30.00
2023-02-11T21:34:51.131Z,32.63
2023-02-11T21:37:19.549Z,29.92
2023-02-11T21:39:48.147Z,40.03
2023-02-11T21:42:16.972Z,32.30
2023-02-11T21:44:45.208Z,32.97
2023-02-11T21:47:12.996Z,35.13
2023-02-11T21:49:43.684Z,35.03
2023-02-11T21:52:11.521Z,35.30
2023-02-11T21:54:39.238Z,37.50
2023-02-11T21:57:07.605Z,37.45
2023-02-11T21:59:35.765Z,39.25
2023-02-11T22:02:05.610Z,37.67
2023-02-11T22:04:36.029Z,38.65
2023-02-11T22:07:06.676Z,50.50
2023-02-11T22:09:42.032Z,42.17
2023-02-11T22:14:39.688Z,40.42
2023-02-11T22:17:08.884Z,45.03
2023-02-11T22:19:37.604Z,63.40
2023-02-11T22:22:08.644Z,53.30
2023-02-11T22:24:37.053Z,91.78
2023-02-11T22:27:04.614Z,75.68
2023-02-11T22:29:31.803Z,56.95
2023-02-11T22:31:59.255Z,69.90
2023-02-11T22:34:27.749Z,87.22
2023-02-11T22:36:55.251Z,75.45
2023-02-11T22:39:22.670Z,66.75
2023-02-11T22:41:50.186Z,56.53
2023-02-11T22:44:18.701Z,79.32
2023-02-11T22:46:46.362Z,77.75
2023-02-11T22:49:15.229Z,68.18
2023-02-11T22:51:43.064Z,88.30
2023-02-11T22:54:16.390Z,71.03
2023-02-11T22:56:44.108Z,91.97
2023-02-11T22:59:13.889Z,62.75
2023-02-11T23:01:41.709Z,63.40
2023-02-11T23:04:12.452Z,65.65
2023-02-11T23:06:40.198Z,73.97
2023-02-11T23:09:10.566Z,62.80
2023-02-11T23:11:38.534Z,80.25
2023-02-11T23:14:06.034Z,68.28
2023-02-11T23:16:39.717Z,78.82
2023-02-11T23:19:08.976Z,67.60
2023-02-11T23:21:38.417Z,76.53
2023-02-11T23:24:10.443Z,81.35
2023-02-11T23:26:40.077Z,132.82
2023-02-11T23:29:08.003Z,132.02
2023-02-11T23:31:40.078Z,73.00
2023-02-11T23:34:08.429Z,89.35
2023-02-11T23:36:36.080Z,89.70
2023-02-11T23:39:05.913Z,78.72
2023-02-11T23:41:33.139Z,82.03
2023-02-11T23:44:03.168Z,90.10
2023-02-11T23:46:30.576Z,77.65
2023-02-11T23:48:58.020Z,90.18
2023-02-11T23:51:25.422Z,84.20
2023-02-11T23:53:54.379Z,91.10
2023-02-11T23:56:24.172Z,66.07
2023-02-11T23:58:53.450Z,88.90
